X  Sluiten METAR luchtvaart weer gegevens      EBBR Brussels
Temperatuur
12°C Temperatuur
9°C Dauwpunt
82% Vochtigheid



Wind
5 KM/U
3 MPH
1 M/S
3 KTS



70°
ONO
Huidig weer

Helder Helder
Luchtdruk 1024.92 (hPa) - 30.27 (inHg)
Zicht 5 (mijl) - 8 (km)
Vliegveld
Vliegveld code EBBR

Locatie : Brussels
Afstand: 14 (km)

Metar:
EBBR 090720Z 07003KT 030V100 8000 NSC 12/09 Q1025 BECMG 9999 NSW

Tijd: 04-09-2020 09:20 CEST